createdAt,value
2022-11-30T00:01:29.641Z,23.10
2022-11-30T00:04:38.094Z,19.70
2022-11-30T00:07:46.210Z,22.10
2022-11-30T00:10:53.993Z,18.60
2022-11-30T00:14:04.751Z,22.10
2022-11-30T00:17:13.090Z,21.30
2022-11-30T00:20:21.257Z,20.60
2022-11-30T00:23:32.450Z,23.30
2022-11-30T00:26:40.984Z,22.00
2022-11-30T00:29:48.873Z,21.00
2022-11-30T00:33:01.240Z,19.40
2022-11-30T00:36:13.928Z,16.60
2022-11-30T00:39:22.009Z,19.20
2022-11-30T00:42:30.345Z,22.00
2022-11-30T00:45:38.592Z,20.60
2022-11-30T00:48:46.987Z,17.70
2022-11-30T00:51:55.431Z,14.80
2022-11-30T00:55:04.427Z,18.00
2022-11-30T00:58:12.848Z,17.50
2022-11-30T01:01:20.815Z,18.00
2022-11-30T01:04:29.104Z,18.40
2022-11-30T01:07:36.963Z,22.10
2022-11-30T01:10:48.143Z,18.10
2022-11-30T01:13:57.220Z,19.10
2022-11-30T01:17:05.205Z,19.90
2022-11-30T01:20:14.248Z,19.80
2022-11-30T01:23:22.314Z,19.70
2022-11-30T01:26:30.383Z,19.50
2022-11-30T01:29:38.334Z,19.60
2022-11-30T01:32:46.285Z,18.80
2022-11-30T01:36:02.218Z,15.70
2022-11-30T01:39:12.197Z,19.60
2022-11-30T01:42:22.974Z,15.10
2022-11-30T01:45:31.224Z,17.60
2022-11-30T01:48:39.209Z,14.10
2022-11-30T01:51:52.011Z,15.50
2022-11-30T01:55:07.367Z,16.50
2022-11-30T01:58:24.193Z,17.40
2022-11-30T02:01:33.093Z,15.00
2022-11-30T02:04:41.999Z,15.00
2022-11-30T02:07:50.379Z,17.30
2022-11-30T02:11:05.428Z,17.40
2022-11-30T02:14:36.563Z,18.10
2022-11-30T02:17:58.262Z,14.40
2022-11-30T02:21:17.394Z,16.50
2022-11-30T02:24:57.064Z,15.50
2022-11-30T02:28:52.673Z,11.40
2022-11-30T02:32:11.937Z,15.40
2022-11-30T02:35:26.166Z,15.20
2022-11-30T02:38:34.723Z,14.00
2022-11-30T02:41:44.153Z,15.50
2022-11-30T02:44:55.655Z,15.40
2022-11-30T02:48:11.738Z,16.10
2022-11-30T02:51:26.584Z,13.90
2022-11-30T02:54:35.622Z,14.30
2022-11-30T02:57:45.239Z,16.50
2022-11-30T03:00:53.214Z,14.60
2022-11-30T03:04:01.579Z,14.10
2022-11-30T03:07:09.370Z,12.50
2022-11-30T03:10:18.266Z,13.70
2022-11-30T03:13:26.181Z,14.90
2022-11-30T03:16:34.452Z,14.20
2022-11-30T03:19:42.276Z,12.70
2022-11-30T03:22:50.263Z,14.70
2022-11-30T03:26:02.209Z,13.60
2022-11-30T03:29:10.078Z,14.30
2022-11-30T03:32:18.040Z,24.10
2022-11-30T03:35:26.416Z,32.30
2022-11-30T03:38:35.206Z,38.90
2022-11-30T03:41:43.320Z,30.60
2022-11-30T03:44:51.054Z,28.40
2022-11-30T03:47:59.529Z,25.80
2022-11-30T03:51:09.046Z,25.80
2022-11-30T03:54:17.187Z,25.20
2022-11-30T03:57:25.451Z,19.90
2022-11-30T04:00:33.409Z,19.00
2022-11-30T04:03:42.107Z,19.80
2022-11-30T04:06:50.115Z,19.10
2022-11-30T04:10:00.098Z,18.90
2022-11-30T04:13:09.859Z,17.40
2022-11-30T04:16:17.826Z,24.50
2022-11-30T04:19:26.287Z,28.70
2022-11-30T04:22:34.584Z,26.90
2022-11-30T04:25:44.740Z,28.80
2022-11-30T04:28:52.792Z,31.50
2022-11-30T04:32:01.032Z,24.50
2022-11-30T04:35:10.549Z,26.90
2022-11-30T04:38:18.583Z,26.30
2022-11-30T04:41:26.435Z,27.30
2022-11-30T04:44:34.463Z,24.70
2022-11-30T04:47:42.864Z,22.90
2022-11-30T04:50:50.850Z,23.60
2022-11-30T04:53:58.590Z,23.10
2022-11-30T04:57:06.766Z,25.30
2022-11-30T05:00:19.513Z,27.10
2022-11-30T05:03:27.518Z,23.40
2022-11-30T05:06:35.405Z,23.10
2022-11-30T05:09:43.295Z,23.00
2022-11-30T05:12:51.616Z,23.80
2022-11-30T05:15:59.719Z,21.90
2022-11-30T05:19:08.486Z,22.80
2022-11-30T05:22:16.585Z,21.50
2022-11-30T05:25:24.409Z,22.60
2022-11-30T05:28:32.255Z,22.00
2022-11-30T05:31:42.623Z,24.50
2022-11-30T05:34:51.788Z,22.30
2022-11-30T05:38:00.085Z,21.60
2022-11-30T05:41:08.444Z,25.20
2022-11-30T05:44:16.533Z,26.40
2022-11-30T05:47:24.438Z,26.10
2022-11-30T05:50:32.416Z,24.90
2022-11-30T05:53:42.596Z,25.10
2022-11-30T05:56:54.646Z,24.20
2022-11-30T06:00:03.349Z,21.00
2022-11-30T06:03:11.587Z,23.90
2022-11-30T06:06:20.244Z,25.10
2022-11-30T06:09:28.408Z,24.20
2022-11-30T06:12:36.521Z,33.90
2022-11-30T06:15:45.384Z,30.70
2022-11-30T06:18:53.599Z,29.60
2022-11-30T06:22:01.732Z,26.40
2022-11-30T06:25:10.578Z,33.60
2022-11-30T06:28:18.546Z,26.80
2022-11-30T06:31:26.588Z,22.50
2022-11-30T06:34:36.731Z,21.20
2022-11-30T06:37:45.148Z,23.70
2022-11-30T06:40:53.566Z,15.20
2022-11-30T06:44:02.202Z,13.60
2022-11-30T06:47:10.064Z,13.00
2022-11-30T06:50:18.689Z,10.70
2022-11-30T06:53:26.696Z,10.50
2022-11-30T06:56:34.530Z,11.10
2022-11-30T06:59:42.829Z,9.50
2022-11-30T07:02:50.675Z,11.90
2022-11-30T07:05:58.779Z,8.80
2022-11-30T07:09:06.842Z,10.80
2022-11-30T07:12:14.975Z,9.30
2022-11-30T07:15:22.855Z,8.70
2022-11-30T07:18:32.244Z,11.00
2022-11-30T07:21:41.018Z,8.00
2022-11-30T07:25:09.841Z,8.50
2022-11-30T07:28:18.597Z,7.70
2022-11-30T07:31:29.497Z,8.90
2022-11-30T07:34:37.364Z,9.00
2022-11-30T07:37:45.460Z,10.30
2022-11-30T07:40:53.207Z,9.50
2022-11-30T07:44:01.813Z,11.10
2022-11-30T07:47:09.829Z,10.50
2022-11-30T07:50:18.119Z,11.90
2022-11-30T07:53:26.487Z,10.90
2022-11-30T07:56:34.426Z,10.90
2022-11-30T07:59:42.445Z,13.20
2022-11-30T08:02:52.684Z,13.10
2022-11-30T08:06:07.010Z,12.40
2022-11-30T08:09:20.692Z,11.50
2022-11-30T08:12:28.934Z,13.40
2022-11-30T08:15:36.807Z,13.30
2022-11-30T08:18:45.512Z,14.70
2022-11-30T08:21:53.515Z,16.70
2022-11-30T08:25:01.561Z,14.10
2022-11-30T08:28:10.258Z,14.60
2022-11-30T08:31:23.771Z,13.30
2022-11-30T08:34:31.822Z,14.70
2022-11-30T08:37:42.019Z,15.10
2022-11-30T08:40:49.851Z,14.10
2022-11-30T08:43:58.547Z,17.40
2022-11-30T08:47:07.593Z,18.60
2022-11-30T08:50:16.089Z,18.20
2022-11-30T08:53:24.153Z,19.90
2022-11-30T08:56:32.070Z,25.00
2022-11-30T08:59:40.116Z,22.60
2022-11-30T09:02:48.399Z,25.60
2022-11-30T09:05:56.120Z,21.80
2022-11-30T09:09:06.529Z,23.10
2022-11-30T09:12:14.469Z,20.80
2022-11-30T09:15:22.769Z,17.30
2022-11-30T09:18:30.715Z,18.70
2022-11-30T09:21:38.874Z,20.00
2022-11-30T09:24:47.254Z,21.60
2022-11-30T09:27:55.665Z,17.30
2022-11-30T09:31:09.186Z,17.00
2022-11-30T09:34:17.308Z,15.60
2022-11-30T09:37:25.595Z,19.00
2022-11-30T09:40:35.868Z,19.70
2022-11-30T09:43:55.413Z,16.10
2022-11-30T09:47:32.577Z,19.30
2022-11-30T09:50:45.898Z,19.30
2022-11-30T09:54:01.924Z,18.20
2022-11-30T09:57:26.977Z,19.70
2022-11-30T10:00:37.140Z,19.60
2022-11-30T10:03:45.291Z,21.90
2022-11-30T10:07:06.832Z,17.70
2022-11-30T10:10:33.351Z,17.80
2022-11-30T10:13:59.757Z,14.60
2022-11-30T10:17:23.177Z,12.50
2022-11-30T10:21:05.399Z,14.10
2022-11-30T10:24:31.410Z,19.40
2022-11-30T10:27:53.411Z,16.80
2022-11-30T10:31:03.182Z,20.40
2022-11-30T10:37:39.692Z,18.70
2022-11-30T10:40:55.480Z,14.70
2022-11-30T10:44:11.333Z,16.60
2022-11-30T10:47:26.643Z,17.20
2022-11-30T10:50:36.662Z,19.10
2022-11-30T10:53:44.571Z,19.70
2022-11-30T10:56:52.565Z,18.50
2022-11-30T11:00:05.399Z,18.90
2022-11-30T11:03:27.954Z,16.90
2022-11-30T11:06:41.943Z,15.50
2022-11-30T11:09:52.148Z,13.40
2022-11-30T11:13:00.733Z,12.60
2022-11-30T11:16:11.953Z,9.40
2022-11-30T11:19:34.510Z,8.10
2022-11-30T11:22:45.036Z,7.70
2022-11-30T11:25:55.022Z,8.90
2022-11-30T11:32:27.341Z,6.50
2022-11-30T11:35:42.877Z,8.00
2022-11-30T11:38:51.674Z,7.30
2022-11-30T11:42:01.366Z,8.40
2022-11-30T11:45:23.028Z,7.20
2022-11-30T11:48:45.598Z,6.90
2022-11-30T11:52:06.101Z,7.40
2022-11-30T11:55:21.372Z,6.90
2022-11-30T11:58:43.006Z,6.40
2022-11-30T12:02:03.424Z,6.70
2022-11-30T12:05:17.589Z,6.10
2022-11-30T12:08:39.694Z,6.00
2022-11-30T12:11:50.187Z,6.50
2022-11-30T12:14:59.263Z,7.50
2022-11-30T12:18:23.843Z,8.20
2022-11-30T12:21:52.438Z,7.00
2022-11-30T12:25:22.311Z,7.70
2022-11-30T12:32:01.356Z,7.20
2022-11-30T12:35:29.630Z,9.00
2022-11-30T12:38:53.145Z,7.80
2022-11-30T12:42:09.271Z,6.90
2022-11-30T12:45:27.204Z,7.70
2022-11-30T12:48:46.091Z,8.80
2022-11-30T12:52:04.503Z,7.00
2022-11-30T12:55:30.328Z,8.80
2022-11-30T12:58:48.782Z,8.60
2022-11-30T13:02:42.416Z,7.60
2022-11-30T13:05:58.126Z,8.60
2022-11-30T13:09:15.895Z,11.00
2022-11-30T13:12:36.153Z,7.50
2022-11-30T13:15:47.343Z,8.00
2022-11-30T13:19:00.843Z,8.50
2022-11-30T13:22:16.444Z,9.70
2022-11-30T13:26:06.955Z,9.20
2022-11-30T13:29:23.122Z,8.70
2022-11-30T13:32:57.348Z,8.60
2022-11-30T13:36:07.520Z,10.40
2022-11-30T13:39:25.985Z,10.60
2022-11-30T13:42:51.644Z,10.50
2022-11-30T13:46:20.058Z,9.00
2022-11-30T13:49:36.206Z,9.00
2022-11-30T13:53:27.308Z,10.40
2022-11-30T13:56:39.230Z,7.40
2022-11-30T13:59:53.217Z,8.60
2022-11-30T14:06:55.762Z,8.10
2022-11-30T14:10:27.270Z,9.20
2022-11-30T14:13:40.180Z,10.30
2022-11-30T14:16:48.083Z,9.60
2022-11-30T14:20:03.879Z,8.30
2022-11-30T14:23:17.018Z,9.00
2022-11-30T14:26:34.114Z,10.00
2022-11-30T14:29:44.999Z,10.00
2022-11-30T14:33:04.026Z,8.70
2022-11-30T14:36:13.418Z,11.10
2022-11-30T14:39:37.702Z,7.80
2022-11-30T14:42:53.168Z,9.50
2022-11-30T14:46:15.679Z,8.40
2022-11-30T14:49:25.683Z,9.20
2022-11-30T14:52:53.676Z,10.60
2022-11-30T14:56:09.489Z,8.20
2022-11-30T14:59:43.347Z,9.40
2022-11-30T15:02:52.217Z,9.20
2022-11-30T15:06:03.780Z,8.20
2022-11-30T15:09:22.275Z,9.70
2022-11-30T15:12:30.550Z,9.70
2022-11-30T15:15:41.775Z,8.90
2022-11-30T15:18:50.710Z,8.50
2022-11-30T15:22:00.452Z,8.40
2022-11-30T15:25:13.412Z,9.60
2022-11-30T15:28:25.896Z,9.80
2022-11-30T15:31:42.914Z,9.20
2022-11-30T15:34:57.000Z,11.10
2022-11-30T15:38:10.848Z,8.80
2022-11-30T15:41:24.818Z,11.80
2022-11-30T15:44:47.602Z,10.00
2022-11-30T15:47:57.867Z,11.90
2022-11-30T15:51:07.470Z,14.50
2022-11-30T15:54:16.410Z,12.20
2022-11-30T15:57:27.671Z,12.10
2022-11-30T16:00:35.533Z,12.10
2022-11-30T16:04:05.624Z,10.80
2022-11-30T16:07:21.221Z,11.60
2022-11-30T16:10:36.017Z,18.30
2022-11-30T16:13:44.818Z,13.70
2022-11-30T16:16:55.446Z,17.10
2022-11-30T16:20:03.635Z,18.10
2022-11-30T16:23:15.673Z,16.50
2022-11-30T16:26:43.668Z,16.10
2022-11-30T16:29:55.344Z,15.30
2022-11-30T16:33:03.627Z,14.70
2022-11-30T16:36:18.164Z,11.90
2022-11-30T16:39:25.778Z,11.40
2022-11-30T16:42:34.114Z,18.70
2022-11-30T16:45:43.962Z,15.50
2022-11-30T16:51:58.915Z,19.10
2022-11-30T16:55:11.488Z,15.40
2022-11-30T16:58:19.129Z,14.10
2022-11-30T17:01:35.952Z,14.70
2022-11-30T17:04:45.131Z,16.10
2022-11-30T17:07:54.273Z,15.40
2022-11-30T17:11:02.625Z,15.70
2022-11-30T17:14:11.312Z,17.20
2022-11-30T17:17:19.954Z,17.20
2022-11-30T17:20:29.262Z,16.20
2022-11-30T17:23:37.131Z,17.80
2022-11-30T17:26:45.591Z,16.40
2022-11-30T17:29:53.381Z,15.60
2022-11-30T17:33:01.812Z,16.90
2022-11-30T17:36:14.789Z,17.80
2022-11-30T17:39:25.172Z,17.30
2022-11-30T17:42:33.536Z,13.50
2022-11-30T17:45:44.425Z,16.90
2022-11-30T17:48:52.881Z,15.90
2022-11-30T17:52:01.781Z,17.00
2022-11-30T17:55:11.076Z,17.90
2022-11-30T17:58:19.599Z,20.30
2022-11-30T18:01:29.408Z,20.00
2022-11-30T18:04:37.941Z,15.10
2022-11-30T18:07:45.716Z,15.30
2022-11-30T18:10:53.925Z,15.80
2022-11-30T18:14:04.724Z,17.70
2022-11-30T18:17:12.575Z,17.60
2022-11-30T18:20:20.456Z,15.10
2022-11-30T18:23:29.597Z,18.60
2022-11-30T18:26:37.240Z,14.60
2022-11-30T18:29:45.344Z,16.60
2022-11-30T18:32:53.639Z,16.70
2022-11-30T18:36:06.579Z,16.50
2022-11-30T18:39:14.453Z,18.50
2022-11-30T18:42:22.875Z,22.20
2022-11-30T18:45:33.744Z,16.90
2022-11-30T18:48:42.951Z,23.20
2022-11-30T18:51:50.839Z,18.60
2022-11-30T18:54:59.584Z,17.60
2022-11-30T18:58:07.588Z,17.00
2022-11-30T19:01:21.046Z,14.10
2022-11-30T19:04:30.260Z,18.80
2022-11-30T19:07:41.018Z,17.50
2022-11-30T19:10:48.706Z,16.20
2022-11-30T19:14:00.544Z,15.90
2022-11-30T19:17:08.422Z,18.00
2022-11-30T19:20:19.989Z,15.50
2022-11-30T19:23:28.583Z,18.30
2022-11-30T19:26:37.887Z,20.50
2022-11-30T19:29:45.650Z,23.40
2022-11-30T19:32:54.035Z,26.30
2022-11-30T19:36:07.887Z,22.90
2022-11-30T19:39:15.745Z,25.80
2022-11-30T19:42:24.276Z,21.60
2022-11-30T19:45:32.451Z,22.80
2022-11-30T19:48:40.944Z,21.70
2022-11-30T19:51:49.107Z,19.80
2022-11-30T19:54:56.802Z,17.60
2022-11-30T19:58:06.633Z,20.00
2022-11-30T20:01:22.830Z,21.00
2022-11-30T20:04:31.574Z,20.70
2022-11-30T20:07:40.109Z,21.40
2022-11-30T20:10:48.462Z,23.20
2022-11-30T20:13:57.363Z,21.90
2022-11-30T20:17:05.735Z,24.90
2022-11-30T20:20:15.643Z,27.20
2022-11-30T20:26:32.829Z,27.20
2022-11-30T20:29:41.290Z,30.20
2022-11-30T20:32:49.035Z,33.50
2022-11-30T20:35:57.793Z,32.20
2022-11-30T20:39:05.840Z,33.20
2022-11-30T20:42:13.889Z,38.50
2022-11-30T20:45:23.905Z,32.60
2022-11-30T20:48:34.236Z,33.80
2022-11-30T20:51:42.258Z,34.80
2022-11-30T20:54:50.679Z,38.90
2022-11-30T20:57:58.987Z,38.30
2022-11-30T21:01:15.754Z,38.20
2022-11-30T21:04:25.840Z,36.30
2022-11-30T21:07:38.344Z,33.10
2022-11-30T21:10:46.757Z,34.90
2022-11-30T21:13:55.743Z,33.90
2022-11-30T21:17:03.651Z,36.00
2022-11-30T21:20:14.119Z,35.70
2022-11-30T21:23:24.970Z,34.40
2022-11-30T21:26:36.187Z,33.30
2022-11-30T21:29:44.124Z,35.70
2022-11-30T21:32:52.169Z,36.20
2022-11-30T21:36:00.167Z,37.90
2022-11-30T21:39:10.445Z,34.80
2022-11-30T21:42:18.145Z,37.90
2022-11-30T21:45:26.208Z,33.70
2022-11-30T21:48:36.791Z,34.40
2022-11-30T21:51:45.118Z,34.90
2022-11-30T21:54:54.074Z,31.80
2022-11-30T21:58:02.055Z,34.50
2022-11-30T22:01:13.302Z,33.40
2022-11-30T22:04:21.435Z,28.70
2022-11-30T22:07:32.782Z,21.80
2022-11-30T22:10:40.828Z,17.60
2022-11-30T22:13:53.174Z,15.80
2022-11-30T22:17:01.822Z,23.80
2022-11-30T22:20:13.805Z,26.40
2022-11-30T22:23:21.666Z,27.70
2022-11-30T22:26:31.970Z,25.80
2022-11-30T22:29:40.054Z,29.20
2022-11-30T22:32:49.380Z,20.90
2022-11-30T22:35:58.911Z,27.00
2022-11-30T22:39:19.714Z,23.30
2022-11-30T22:42:28.180Z,24.20
2022-11-30T22:45:37.495Z,23.10
2022-11-30T22:48:47.173Z,22.30
2022-11-30T22:51:55.412Z,21.60
2022-11-30T22:55:03.679Z,17.80
2022-11-30T22:58:11.680Z,15.40
2022-11-30T23:01:22.741Z,10.50
2022-11-30T23:04:30.573Z,9.00
2022-11-30T23:07:38.505Z,9.30
2022-11-30T23:10:46.201Z,10.20
2022-11-30T23:13:54.798Z,10.60
2022-11-30T23:17:03.126Z,8.80
2022-11-30T23:20:13.878Z,8.30
2022-11-30T23:23:22.081Z,9.10
2022-11-30T23:26:33.085Z,9.10
2022-11-30T23:29:41.574Z,9.60
2022-11-30T23:32:49.591Z,9.50
2022-11-30T23:35:57.691Z,9.60
2022-11-30T23:39:09.502Z,11.10
2022-11-30T23:42:17.630Z,10.00
2022-11-30T23:45:25.860Z,12.50
2022-11-30T23:48:34.771Z,13.30
2022-11-30T23:51:43.089Z,13.80
2022-11-30T23:54:51.312Z,12.90
2022-11-30T23:57:59.798Z,11.00
